EDFM Airport Information

Runway Information
Runway 09 Length 3497 ft width 82 ft
Elevation 309 ft Threshold 19 ft Heading 93
Runway 27 Length 3497 ft Width 82 ft
Elevation 306 ft Threshold 174 ft Heading 273
Runway 09L Length 2297 ft width 98 ft
Elevation 0 ft Threshold 246 ft Heading 92
Runway 27R Length 2297 ft Width 98 ft
Elevation 0 ft Threshold 82 ft Heading 272
Airport Frequencies
Type APP Name COLEMAN AP Frequency 130.5 MHZ
Type ATIS Name ATIS Frequency 136.55 MHZ
Type CNTR Name LANGEN RAD Frequency 127.5 MHZ
Type INFO Name INFO Frequency 118.4 MHZ
Type TWR Name TWR Frequency 118.4 MHZ
Type TWR Name COLEMAN TW Frequency 122.1 MHZ
Airport Navaids
Type DME Name Mannheim Frequency 113550 KHZ
Airport Weather Information & NOTAM
ADDS - METARS form results

(0826 UTC 18 July 2018)
 
METAR text: EDFM 180820Z VRB05KT CAVOK 23/12 Q1018
Conditions at: EDFM (MANNHEIM , DE) observed 0820 UTC 18 July 2018
Temperature: 23.0°C (73°F)
Dewpoint: 12.0°C (54°F) [RH = 50%]
Pressure (altimeter): 30.06 inches Hg (1018.0 mb)
Winds: variable direction winds at 6 MPH (5 knots; 2.6 m/s)
Visibility: 6 or more miles (10+ km)
Ceiling: ceiling and visibility are OK
Clouds: unknown
Weather: no significant weather observed at this time

METAR text: EDFM 180750Z 36005KT 310V060 CAVOK 23/12 Q1018
Conditions at: EDFM (MANNHEIM , DE) observed 0750 UTC 18 July 2018
Temperature: 23.0°C (73°F)
Dewpoint: 12.0°C (54°F) [RH = 50%]
Pressure (altimeter): 30.06 inches Hg (1018.0 mb)
Winds: from the N (360 degrees) at 6 MPH (5 knots; 2.6 m/s)
Visibility: 6 or more miles (10+ km)
Ceiling: ceiling and visibility are OK
Clouds: unknown
Weather: no significant weather observed at this time